Hlavní strana
METAR-TAF:

METAR-TAF

Letiště :

In Aménas, Alžírsko

zeměpisná šířka: 28-03N, zeměpisná délka: 009-38E, výška: 562 m

Aktuální stav počasí

Zpráva byla vytvořena před 49 minutami, v 14:00 UTC
Východojihovýchodní vítr 23 kt
Teplota 23°C
Vlhkost vzduchu 17%
Tlak 1016 hPa
Viditelnost: 3500 m
Polojasno ve výšce 4000 ft
Polojasno ve výšce 8000 ft
nízko zvířený písek

METAR: DAUZ 031400Z 11023KT 3500 DRSA SCT040 SCT080 23/M03 Q1016

Čas: 15:49 (14:49 UTC)

Předpověď počasí

Zpráva byla vytvořena před 1 hodinou a 30 minutami, v 13:19 UTC
Předpověď platná od 03 v 13 UTC do 04 v 12 UTC
Jihovýchodní vítr 18 kt
Viditelnost: 6000 m
Polojasno ve výšce 4000 ft
Polojasno ve výšce 8000 ft
Dočasný
od 03 v 13 UTC do 03 v 18 UTC
Viditelnost: 4000 m
nízko zvířený písek
Pravděpodobnost 30% :
Dočasný
od 03 v 15 UTC do 03 v 18 UTC
Viditelnost: 2000 m
nízko zvířený písek

TAF: DAUZ 031319Z 0313/0412 14018KT 6000 SCT040 SCT080 TEMPO 0313/0318 4000 DRSA PROB30 TEMPO 0315/0318 2000 DRSA

Stav a předpovědi počasí z více než 4 000 letišť (zprávy METAR a TAF).

Červené a žluté tečky na mapě představují dostupné meteorologické stanice.

Když kurzor umístíte na tečku, zobrazí se název stanice.

Pak kliknutím zobrazíte stav a předpověď počasí.

Chcete-li změnit mapu, kliknutím na zelené tlačítko se znaménkem +mapu přiblížíte, kliknutím na zelené tlačítko se znaménkem – mapu oddálíte a kliknutím na zelené šipky přejdete na sousední mapy.


METAR-TAF: